Yahata Maru — JL6477 — position and weather

sailwx.info

Track history (hours):
 
Tides and Currents Weather Stations Pressure Air Temp Water Temp Dewpoint Dewpoint Depression Visibility Wind Speed Wind Dir Waves Ship Positions

Yahata Maru

Last reported at 2015-Apr-20 13:33 UTC. Time now 2015-Apr-22 03:52 UTC.
Position N 34°34' E 134°49'.

Length 149 m; draft 4.7 m.

Type: Other ship. MMSI: 431400594.

Date/timePositionNaut miles runAvg speedWind from/ knotsBaromVisibWave heightAir tempDewpointWater temp
2015-Apr-20 13:33N 34°34' E 134°49'1211.8
2015-Apr-20 12:33N 34°36' E 135°03'10 9.8
2015-Apr-20 11:33N 34°37' E 135°15'5 4.6
2015-Apr-20 10:32N 34°39' E 135°20'1 1.1
2015-Apr-20 09:33N 34°38' E 135°19'5 4.8
2015-Apr-20 08:33N 34°43' E 135°21'0 0.1
2015-Apr-20 07:33N 34°43' E 135°21'0 0.0
2015-Apr-20 06:33N 34°43' E 135°21'0 0.0
2015-Apr-20 05:27N 34°43' E 135°21'0 0.0
2015-Apr-20 04:30N 34°43' E 135°21'3 3.6
2015-Apr-20 03:33N 34°40' E 135°22'5 5.3
2015-Apr-20 02:33N 34°35' E 135°25'0 0.2
2015-Apr-20 01:29N 34°35' E 135°26'0 0.0
2015-Apr-20 00:33N 34°35' E 135°26'6 5.7
2015-Apr-19 23:33N 34°36' E 135°19'0 0.5
2015-Apr-19 22:29N 34°36' E 135°18'0 0.0
2015-Apr-19 21:29N 34°36' E 135°18'0 0.0
2015-Apr-19 20:23N 34°36' E 135°18'0 0.0
2015-Apr-19 19:23N 34°36' E 135°18'0 0.0
2015-Apr-19 18:29N 34°36' E 135°18'0 0.1
2015-Apr-19 17:31N 34°36' E 135°18'7 7.1
2015-Apr-19 16:33N 34°30' E 135°14'9 8.9
2015-Apr-19 15:33N 34°24' E 135°06'9 8.6
2015-Apr-19 14:28N 34°16' E 134°59'910.0
2015-Apr-19 13:33N 34°07' E 135°00'211 5.4
2015-Apr-17 22:26N 34°53' E 139°11'17 9.2
2015-Apr-17 20:33N 35°01' E 139°29'9 9.5
2015-Apr-17 19:33N 35°06' E 139°39'9 9.1
2015-Apr-17 18:33N 35°13' E 139°46'9 8.6
2015-Apr-17 17:33N 35°21' E 139°42'7 7.2
2015-Apr-17 16:33N 35°28' E 139°43'0 0.0
2015-Apr-17 15:31N 35°28' E 139°43'0 0.0
2015-Apr-17 14:31N 35°28' E 139°43'0 0.1
2015-Apr-17 13:34N 35°28' E 139°43'6 6.1
2015-Apr-17 12:33N 35°29' E 139°50'8 7.8
2015-Apr-17 11:33N 35°35' E 139°57'0 0.0
2015-Apr-17 10:33N 35°35' E 139°57'0 0.0
2015-Apr-17 09:34N 35°35' E 139°57'0 0.2
2015-Apr-17 08:33N 35°35' E 139°57'0 0.0
2015-Apr-17 07:33N 35°35' E 139°57'0 0.0
2015-Apr-17 06:34N 35°35' E 139°57'0 0.0
2015-Apr-17 05:32N 35°35' E 139°57'0 0.0
2015-Apr-17 04:32N 35°35' E 139°57'0 0.0
2015-Apr-17 03:33N 35°35' E 139°57'0 0.0
2015-Apr-17 02:33N 35°35' E 139°57'0 0.0
2015-Apr-17 01:10N 35°35' E 139°57'0 0.0
2015-Apr-17 00:25N 35°35' E 139°57'0 0.1
2015-Apr-16 23:28N 35°35' E 139°57'0 0.1
2015-Apr-16 22:22N 35°35' E 139°57'1 0.7
2015-Apr-16 21:33N 35°34' E 139°57'8 7.9
2015-Apr-16 20:33N 35°33' E 140°07'0 0.0
2015-Apr-16 19:29N 35°33' E 140°07'0 0.0
2015-Apr-16 18:17N 35°33' E 140°07'0 0.0
2015-Apr-16 17:26N 35°33' E 140°07'0 0.0
2015-Apr-16 16:20N 35°33' E 140°07'0 0.0
2015-Apr-16 15:23N 35°33' E 140°07'0 0.0
2015-Apr-16 14:32N 35°33' E 140°07'0 0.0
2015-Apr-16 13:23N 35°33' E 140°07'0 0.0
2015-Apr-16 12:32N 35°33' E 140°07'0 0.0
2015-Apr-16 11:29N 35°33' E 140°07'0 0.0
2015-Apr-16 10:30N 35°33' E 140°07'6 6.1
2015-Apr-16 09:33N 35°34' E 139°60'1 0.5
2015-Apr-16 08:29N 35°34' E 139°59'0 0.0
2015-Apr-16 07:17N 35°34' E 139°59'0 0.0
2015-Apr-16 06:29N 35°34' E 139°59'0 0.0
2015-Apr-16 05:32N 35°34' E 139°59'0 0.0
2015-Apr-16 04:31N 35°34' E 139°59'0 0.0
2015-Apr-16 03:25N 35°34' E 139°59'0 0.0
2015-Apr-16 02:31N 35°34' E 139°59'0 0.0
2015-Apr-16 01:31N 35°34' E 139°59'0 0.0
2015-Apr-16 00:22N 35°34' E 139°59'0 0.0
2015-Apr-15 23:31N 35°34' E 139°59'0 0.1
2015-Apr-15 22:31N 35°34' E 139°59'0 0.0
2015-Apr-15 21:31N 35°34' E 139°59'0 0.0
2015-Apr-15 20:25N 35°34' E 139°59'0 0.0
2015-Apr-15 19:31N 35°34' E 139°59'0 0.0
2015-Apr-15 18:28N 35°34' E 139°59'0 0.1
2015-Apr-15 17:25N 35°34' E 139°59'0 0.1
2015-Apr-15 16:31N 35°34' E 139°59'0 0.0
2015-Apr-15 15:30N 35°34' E 139°59'1 0.9
2015-Apr-15 14:33N 35°33' E 139°58'10 9.6
2015-Apr-15 13:33N 35°27' E 139°49'5 5.3
2015-Apr-15 12:34N 35°28' E 139°43'0 0.0
2015-Apr-15 11:33N 35°28' E 139°43'0 0.0
2015-Apr-15 10:33N 35°28' E 139°43'0 0.0
2015-Apr-15 09:33N 35°28' E 139°43'0 0.0
2015-Apr-15 08:30N 35°28' E 139°43'0 0.0
2015-Apr-15 07:33N 35°28' E 139°43'0 0.0
2015-Apr-15 06:33N 35°28' E 139°43'0 0.0
2015-Apr-15 05:33N 35°28' E 139°43'0 0.0
2015-Apr-15 04:33N 35°28' E 139°43'0 0.0
2015-Apr-15 03:33N 35°28' E 139°43'0 0.0
2015-Apr-15 02:30N 35°28' E 139°43'0 0.0
2015-Apr-15 01:33N 35°28' E 139°43'0 0.0
2015-Apr-15 00:33N 35°28' E 139°43'0 0.0
2015-Apr-14 23:33N 35°28' E 139°43'0 0.0
2015-Apr-14 22:30N 35°28' E 139°43'0 0.0
2015-Apr-14 21:33N 35°28' E 139°43'0 0.0
2015-Apr-14 20:33N 35°28' E 139°43'4 3.5
2015-Apr-14 19:33N 35°26' E 139°46'8 8.0
2015-Apr-14 18:34N 35°18' E 139°45'9 8.9
2015-Apr-14 17:33N 35°09' E 139°46'9 8.6
2015-Apr-14 16:33N 35°02' E 139°39'9 9.1
2015-Apr-14 15:31N 34°56' E 139°30'  
Track history (hours):
 
Tides and Currents Weather Stations Pressure Air Temp Water Temp Dewpoint Dewpoint Depression Visibility Wind Speed Wind Dir Waves Ship Positions

Yahata Maru

Last reported at 2015-Apr-20 13:33 UTC. Time now 2015-Apr-22 03:52 UTC.
Position N 34°34' E 134°49'.

Length 149 m; draft 4.7 m.

Type: Other ship. MMSI: 431400594.

Date/timePositionNaut miles runAvg speedWind from/ knotsBaromVisibWave heightAir tempDewpointWater temp
2015-Apr-20 13:33N 34°34' E 134°49'1211.8
2015-Apr-20 12:33N 34°36' E 135°03'10 9.8
2015-Apr-20 11:33N 34°37' E 135°15'5 4.6
2015-Apr-20 10:32N 34°39' E 135°20'1 1.1
2015-Apr-20 09:33N 34°38' E 135°19'5 4.8
2015-Apr-20 08:33N 34°43' E 135°21'0 0.1
2015-Apr-20 07:33N 34°43' E 135°21'0 0.0
2015-Apr-20 06:33N 34°43' E 135°21'0 0.0
2015-Apr-20 05:27N 34°43' E 135°21'0 0.0
2015-Apr-20 04:30N 34°43' E 135°21'3 3.6
2015-Apr-20 03:33N 34°40' E 135°22'5 5.3
2015-Apr-20 02:33N 34°35' E 135°25'0 0.2
2015-Apr-20 01:29N 34°35' E 135°26'0 0.0
2015-Apr-20 00:33N 34°35' E 135°26'6 5.7
2015-Apr-19 23:33N 34°36' E 135°19'0 0.5
2015-Apr-19 22:29N 34°36' E 135°18'0 0.0
2015-Apr-19 21:29N 34°36' E 135°18'0 0.0
2015-Apr-19 20:23N 34°36' E 135°18'0 0.0
2015-Apr-19 19:23N 34°36' E 135°18'0 0.0
2015-Apr-19 18:29N 34°36' E 135°18'0 0.1
2015-Apr-19 17:31N 34°36' E 135°18'7 7.1
2015-Apr-19 16:33N 34°30' E 135°14'9 8.9
2015-Apr-19 15:33N 34°24' E 135°06'9 8.6
2015-Apr-19 14:28N 34°16' E 134°59'910.0
2015-Apr-19 13:33N 34°07' E 135°00'211 5.4
2015-Apr-17 22:26N 34°53' E 139°11'17 9.2
2015-Apr-17 20:33N 35°01' E 139°29'9 9.5
2015-Apr-17 19:33N 35°06' E 139°39'9 9.1
2015-Apr-17 18:33N 35°13' E 139°46'9 8.6
2015-Apr-17 17:33N 35°21' E 139°42'7 7.2
2015-Apr-17 16:33N 35°28' E 139°43'0 0.0
2015-Apr-17 15:31N 35°28' E 139°43'0 0.0
2015-Apr-17 14:31N 35°28' E 139°43'0 0.1
2015-Apr-17 13:34N 35°28' E 139°43'6 6.1
2015-Apr-17 12:33N 35°29' E 139°50'8 7.8
2015-Apr-17 11:33N 35°35' E 139°57'0 0.0
2015-Apr-17 10:33N 35°35' E 139°57'0 0.0
2015-Apr-17 09:34N 35°35' E 139°57'0 0.2
2015-Apr-17 08:33N 35°35' E 139°57'0 0.0
2015-Apr-17 07:33N 35°35' E 139°57'0 0.0
2015-Apr-17 06:34N 35°35' E 139°57'0 0.0
2015-Apr-17 05:32N 35°35' E 139°57'0 0.0
2015-Apr-17 04:32N 35°35' E 139°57'0 0.0
2015-Apr-17 03:33N 35°35' E 139°57'0 0.0
2015-Apr-17 02:33N 35°35' E 139°57'0 0.0
2015-Apr-17 01:10N 35°35' E 139°57'0 0.0
2015-Apr-17 00:25N 35°35' E 139°57'0 0.1
2015-Apr-16 23:28N 35°35' E 139°57'0 0.1
2015-Apr-16 22:22N 35°35' E 139°57'1 0.7
2015-Apr-16 21:33N 35°34' E 139°57'8 7.9
2015-Apr-16 20:33N 35°33' E 140°07'0 0.0
2015-Apr-16 19:29N 35°33' E 140°07'0 0.0
2015-Apr-16 18:17N 35°33' E 140°07'0 0.0
2015-Apr-16 17:26N 35°33' E 140°07'0 0.0
2015-Apr-16 16:20N 35°33' E 140°07'0 0.0
2015-Apr-16 15:23N 35°33' E 140°07'0 0.0
2015-Apr-16 14:32N 35°33' E 140°07'0 0.0
2015-Apr-16 13:23N 35°33' E 140°07'0 0.0
2015-Apr-16 12:32N 35°33' E 140°07'0 0.0
2015-Apr-16 11:29N 35°33' E 140°07'0 0.0
2015-Apr-16 10:30N 35°33' E 140°07'6 6.1
2015-Apr-16 09:33N 35°34' E 139°60'1 0.5
2015-Apr-16 08:29N 35°34' E 139°59'0 0.0
2015-Apr-16 07:17N 35°34' E 139°59'0 0.0
2015-Apr-16 06:29N 35°34' E 139°59'0 0.0
2015-Apr-16 05:32N 35°34' E 139°59'0 0.0
2015-Apr-16 04:31N 35°34' E 139°59'0 0.0
2015-Apr-16 03:25N 35°34' E 139°59'0 0.0
2015-Apr-16 02:31N 35°34' E 139°59'0 0.0
2015-Apr-16 01:31N 35°34' E 139°59'0 0.0
2015-Apr-16 00:22N 35°34' E 139°59'0 0.0
2015-Apr-15 23:31N 35°34' E 139°59'0 0.1
2015-Apr-15 22:31N 35°34' E 139°59'0 0.0
2015-Apr-15 21:31N 35°34' E 139°59'0 0.0
2015-Apr-15 20:25N 35°34' E 139°59'0 0.0
2015-Apr-15 19:31N 35°34' E 139°59'0 0.0
2015-Apr-15 18:28N 35°34' E 139°59'0 0.1
2015-Apr-15 17:25N 35°34' E 139°59'0 0.1
2015-Apr-15 16:31N 35°34' E 139°59'0 0.0
2015-Apr-15 15:30N 35°34' E 139°59'1 0.9
2015-Apr-15 14:33N 35°33' E 139°58'10 9.6
2015-Apr-15 13:33N 35°27' E 139°49'5 5.3
2015-Apr-15 12:34N 35°28' E 139°43'0 0.0
2015-Apr-15 11:33N 35°28' E 139°43'0 0.0
2015-Apr-15 10:33N 35°28' E 139°43'0 0.0
2015-Apr-15 09:33N 35°28' E 139°43'0 0.0
2015-Apr-15 08:30N 35°28' E 139°43'0 0.0
2015-Apr-15 07:33N 35°28' E 139°43'0 0.0
2015-Apr-15 06:33N 35°28' E 139°43'0 0.0
2015-Apr-15 05:33N 35°28' E 139°43'0 0.0
2015-Apr-15 04:33N 35°28' E 139°43'0 0.0
2015-Apr-15 03:33N 35°28' E 139°43'0 0.0
2015-Apr-15 02:30N 35°28' E 139°43'0 0.0
2015-Apr-15 01:33N 35°28' E 139°43'0 0.0
2015-Apr-15 00:33N 35°28' E 139°43'0 0.0
2015-Apr-14 23:33N 35°28' E 139°43'0 0.0
2015-Apr-14 22:30N 35°28' E 139°43'0 0.0
2015-Apr-14 21:33N 35°28' E 139°43'0 0.0
2015-Apr-14 20:33N 35°28' E 139°43'4 3.5
2015-Apr-14 19:33N 35°26' E 139°46'8 8.0
2015-Apr-14 18:34N 35°18' E 139°45'9 8.9
2015-Apr-14 17:33N 35°09' E 139°46'9 8.6
2015-Apr-14 16:33N 35°02' E 139°39'9 9.1
2015-Apr-14 15:31N 34°56' E 139°30'  

Dump ship's entire track history